Time;durP1;ratioP1;P1;durP2;ratioP2;P2;SDS_P1;SDS_P2;PMS_P1;PMS_P2;Temp;Humidity;BMP_temperature;BMP_pressure;BME280_temperature;BME280_humidity;BME280_pressure;Samples;Min_cycle;Max_cycle;Signal;HPM_P1;HPM_P2
2023/06/14 00:01:25;;;;;;;1999.90;999.90;;;19.70;99.90;;;;;;5052506;28;20470;-81
2023/06/14 00:03:52;;;;;;;1999.90;999.90;;;19.70;99.90;;;;;;5044915;28;20025;-77
2023/06/14 00:06:17;;;;;;;1999.90;999.90;;;19.70;99.90;;;;;;5064184;28;20129;-81
2023/06/14 00:08:43;;;;;;;1999.90;999.90;;;19.70;99.90;;;;;;5075740;28;20067;-80
2023/06/14 00:11:09;;;;;;;1999.90;999.90;;;19.70;99.90;;;;;;5076088;28;20095;-77
2023/06/14 00:13:34;;;;;;;1999.90;999.90;;;19.70;99.90;;;;;;5075238;28;20016;-81
2023/06/14 00:16:00;;;;;;;1999.90;999.90;;;19.70;99.90;;;;;;5075844;28;20031;-77
2023/06/14 00:18:29;;;;;;;1999.90;999.90;;;19.70;99.90;;;;;;5058068;28;20476;-77
2023/06/14 00:20:55;;;;;;;1999.90;999.90;;;19.70;99.90;;;;;;5075782;28;20029;-81
2023/06/14 00:23:21;;;;;;;1999.90;999.90;;;19.70;99.90;;;;;;5075992;28;20503;-81
2023/06/14 00:25:47;;;;;;;1999.90;999.90;;;19.70;99.90;;;;;;5074940;28;20036;-77
2023/06/14 00:28:13;;;;;;;1999.90;999.90;;;19.70;99.90;;;;;;5075713;28;20107;-76
2023/06/14 00:30:38;;;;;;;1999.90;999.90;;;19.60;99.90;;;;;;5076036;28;20024;-77
2023/06/14 00:33:04;;;;;;;1999.90;999.90;;;19.60;99.90;;;;;;5075466;28;20016;-80
2023/06/14 00:35:30;;;;;;;1999.90;999.90;;;19.50;99.90;;;;;;5075863;28;20513;-81
2023/06/14 00:37:55;;;;;;;1999.90;999.90;;;19.50;99.90;;;;;;5074479;28;20029;-81
2023/06/14 00:40:22;;;;;;;1999.90;999.90;;;19.50;99.90;;;;;;5057316;28;20381;-76
2023/06/14 00:42:47;;;;;;;1999.90;999.90;;;19.50;99.90;;;;;;5082284;28;20055;-77
2023/06/14 00:45:13;;;;;;;1999.90;999.90;;;19.50;99.90;;;;;;5095628;28;20495;-81
2023/06/14 00:47:41;;;;;;;1999.90;999.90;;;19.50;99.90;;;;;;5094427;28;20024;-80
2023/06/14 00:50:08;;;;;;;1999.90;999.90;;;19.50;99.90;;;;;;5077387;28;20427;-80
2023/06/14 00:52:34;;;;;;;1999.90;999.90;;;19.40;99.90;;;;;;5095513;28;20020;-77
2023/06/14 00:55:00;;;;;;;1999.90;999.90;;;19.40;99.90;;;;;;5095607;28;20020;-80
2023/06/14 00:57:27;;;;;;;1999.90;999.90;;;19.40;99.90;;;;;;5077327;28;20035;-76
2023/06/14 00:59:53;;;;;;;1999.90;999.90;;;19.30;99.90;;;;;;5095610;28;20026;-81
2023/06/14 01:02:18;;;;;;;1999.90;999.90;;;19.30;99.90;;;;;;5061441;28;20104;-80
2023/06/14 01:04:50;;;;;;;1999.90;999.90;;;19.30;99.90;;;;;;5071005;28;20510;-80
2023/06/14 01:07:34;;;;;;;1999.90;999.90;;;19.20;99.90;;;;;;5056819;28;20052;-77
2023/06/14 01:10:20;;;;;;;1999.90;999.90;;;19.20;99.90;;;;;;5074787;28;20032;-76
2023/06/14 01:13:10;;;;;;;1999.90;999.90;;;19.20;99.90;;;;;;5074477;28;20383;-80
2023/06/14 01:15:37;;;;;;;1999.90;999.90;;;19.30;99.90;;;;;;5074986;28;20024;-76
2023/06/14 01:18:05;;;;;;;1999.90;999.90;;;19.20;99.90;;;;;;5074815;28;20031;-80
2023/06/14 01:20:32;;;;;;;1999.90;999.90;;;19.30;99.90;;;;;;5074077;28;20107;-76
2023/06/14 01:22:59;;;;;;;1999.90;999.90;;;19.20;99.90;;;;;;5056616;28;20074;-76
2023/06/14 01:25:26;;;;;;;1999.90;999.90;;;19.30;99.90;;;;;;5075005;28;20051;-76
2023/06/14 01:28:03;;;;;;;1999.90;999.90;;;19.20;99.90;;;;;;5074589;28;20025;-80
2023/06/14 01:30:33;;;;;;;1999.90;999.90;;;19.20;99.90;;;;;;5074559;28;20027;-80
2023/06/14 01:32:59;;;;;;;1999.90;999.90;;;19.20;99.90;;;;;;5074507;28;20379;-80
2023/06/14 01:35:25;;;;;;;1999.90;999.90;;;19.20;99.90;;;;;;5074626;28;20028;-76
2023/06/14 01:37:51;;;;;;;1999.90;999.90;;;19.20;99.90;;;;;;5074378;28;20028;-80
2023/06/14 01:40:19;;;;;;;1999.90;999.90;;;19.20;99.90;;;;;;5056364;28;20490;-77
2023/06/14 01:42:47;;;;;;;1999.90;999.90;;;19.10;99.90;;;;;;5063039;28;20032;-76
2023/06/14 01:45:15;;;;;;;1999.90;999.90;;;19.10;99.90;;;;;;5076350;28;20479;-76
2023/06/14 01:47:41;;;;;;;1999.90;999.90;;;19.10;99.90;;;;;;5094599;28;20020;-76
2023/06/14 01:50:07;;;;;;;1999.90;999.90;;;19.10;99.90;;;;;;5094203;28;20028;-76
2023/06/14 01:52:33;;;;;;;1999.90;999.90;;;19.10;99.90;;;;;;5094763;28;20016;-80
2023/06/14 01:55:01;;;;;;;1999.90;999.90;;;19.10;99.90;;;;;;5094239;28;20605;-76
2023/06/14 01:57:27;;;;;;;1999.90;999.90;;;19.10;99.90;;;;;;5098301;28;20444;-82
2023/06/14 01:59:53;;;;;;;1999.90;999.90;;;19.10;99.90;;;;;;5083454;28;20013;-76
2023/06/14 02:02:19;;;;;;;1999.90;999.90;;;19.10;99.90;;;;;;5090294;28;20502;-76
2023/06/14 02:04:47;;;;;;;1999.90;999.90;;;19.10;99.90;;;;;;5074951;28;20395;-80
2023/06/14 02:07:13;;;;;;;1999.90;999.90;;;19.10;99.90;;;;;;5073945;28;20570;-77
2023/06/14 02:09:38;;;;;;;1999.90;999.90;;;19.10;99.90;;;;;;5073490;28;20033;-80
2023/06/14 02:12:04;;;;;;;1999.90;999.90;;;19.10;99.90;;;;;;5055659;28;20391;-80
2023/06/14 02:14:30;;;;;;;1999.90;999.90;;;19.10;99.90;;;;;;5073221;28;20012;-76
2023/06/14 02:16:56;;;;;;;1999.90;999.90;;;19.10;99.90;;;;;;5073725;28;20027;-80
2023/06/14 02:19:21;;;;;;;1999.90;999.90;;;19.10;99.90;;;;;;5073621;28;20051;-76
2023/06/14 02:21:47;;;;;;;1999.90;999.90;;;19.10;99.90;;;;;;5073601;28;20040;-80
2023/06/14 02:24:13;;;;;;;1999.90;999.90;;;19.10;99.90;;;;;;5073303;28;20024;-80
2023/06/14 02:26:39;;;;;;;1999.90;999.90;;;19.10;99.90;;;;;;5073700;28;20492;-76
2023/06/14 02:29:05;;;;;;;1999.90;999.90;;;19.10;99.90;;;;;;5055520;28;20030;-76
2023/06/14 02:31:32;;;;;;;1999.90;999.90;;;19.10;99.90;;;;;;5073386;28;20540;-80
2023/06/14 02:33:58;;;;;;;1999.90;999.90;;;19.10;99.90;;;;;;5073345;28;20062;-76
2023/06/14 02:36:24;;;;;;;1999.90;999.90;;;19.10;99.90;;;;;;5073136;28;20107;-76
2023/06/14 02:38:49;;;;;;;1999.90;999.90;;;19.10;99.90;;;;;;5055244;28;20031;-76
2023/06/14 02:41:15;;;;;;;1999.90;999.90;;;19.10;99.90;;;;;;5073311;28;20029;-80
2023/06/14 02:43:41;;;;;;;1999.90;999.90;;;19.10;99.90;;;;;;5087795;28;20081;-80
2023/06/14 02:46:07;;;;;;;1999.90;999.90;;;19.10;99.90;;;;;;5093349;28;20029;-80
2023/06/14 02:48:33;;;;;;;1999.90;999.90;;;19.10;99.90;;;;;;5093131;28;20506;-80
2023/06/14 02:50:58;;;;;;;1999.90;999.90;;;19.20;99.90;;;;;;5093575;28;20073;-80
2023/06/14 02:53:24;;;;;;;1999.90;999.90;;;19.20;99.90;;;;;;5093482;28;20479;-76
2023/06/14 02:55:49;;;;;;;1999.90;999.90;;;19.20;99.90;;;;;;5075114;28;20112;-76
2023/06/14 02:58:15;;;;;;;1999.90;999.90;;;19.20;99.90;;;;;;5093394;28;20145;-77
2023/06/14 03:00:42;;;;;;;1999.90;999.90;;;19.20;99.90;;;;;;5092976;28;20035;-80
2023/06/14 03:03:13;;;;;;;1999.90;999.90;;;19.20;99.90;;;;;;5058368;28;20043;-80
2023/06/14 03:05:47;;;;;;;1999.90;999.90;;;19.20;99.90;;;;;;5072887;28;20123;-76
2023/06/14 03:08:19;;;;;;;1999.90;999.90;;;19.20;99.90;;;;;;5072343;28;20499;-80
2023/06/14 03:10:48;;;;;;;1999.90;999.90;;;19.20;99.90;;;;;;5052009;28;20063;-80
2023/06/14 03:13:17;;;;;;;1999.90;999.90;;;19.20;99.90;;;;;;5065132;28;20067;-80
2023/06/14 03:15:44;;;;;;;1999.90;999.90;;;19.30;99.90;;;;;;5071405;28;20538;-80
2023/06/14 03:18:11;;;;;;;1999.90;999.90;;;19.30;99.90;;;;;;5072863;28;20020;-76
2023/06/14 03:20:38;;;;;;;1999.90;999.90;;;19.30;99.90;;;;;;5072852;28;20519;-76
2023/06/14 03:23:05;;;;;;;1999.90;999.90;;;19.30;99.90;;;;;;5072993;28;20430;-80
2023/06/14 03:25:32;;;;;;;1999.90;999.90;;;19.30;99.90;;;;;;5072681;28;20107;-76
2023/06/14 03:27:58;;;;;;;1999.90;999.90;;;19.30;99.90;;;;;;5072524;28;20024;-80
2023/06/14 03:30:24;;;;;;;1999.90;999.90;;;19.30;99.90;;;;;;5072568;28;20165;-76
2023/06/14 03:32:51;;;;;;;1999.90;999.90;;;19.30;99.90;;;;;;5054753;28;20024;-76
2023/06/14 03:35:17;;;;;;;1999.90;999.90;;;19.20;99.90;;;;;;5072916;28;20035;-80
2023/06/14 03:37:47;;;;;;;1999.90;999.90;;;19.20;99.90;;;;;;5072595;28;20107;-80
2023/06/14 03:40:15;;;;;;;1999.90;999.90;;;19.20;99.90;;;;;;5072176;28;20021;-80
2023/06/14 03:42:41;;;;;;;1999.90;999.90;;;19.10;99.90;;;;;;5078696;28;20034;-76
2023/06/14 03:45:07;;;;;;;1999.90;999.90;;;19.00;99.90;;;;;;5092600;28;20111;-76
2023/06/14 03:47:33;;;;;;;1999.90;999.90;;;19.00;99.90;;;;;;5073887;28;20024;-80
2023/06/14 03:50:00;;;;;;;1999.90;999.90;;;18.90;99.90;;;;;;5092348;28;20016;-80
2023/06/14 03:52:26;;;;;;;1999.90;999.90;;;18.90;99.90;;;;;;5092599;28;20073;-76
2023/06/14 03:54:51;;;;;;;1999.90;999.90;;;18.90;99.90;;;;;;5092564;28;20028;-80
2023/06/14 03:57:17;;;;;;;1999.90;999.90;;;18.90;99.90;;;;;;5092816;28;20032;-76
2023/06/14 03:59:43;;;;;;;1999.90;999.90;;;18.90;99.90;;;;;;5074255;28;20028;-76
2023/06/14 04:02:15;;;;;;;1999.90;999.90;;;18.90;99.90;;;;;;5084570;28;20103;-80
2023/06/14 04:04:44;;;;;;;1999.90;999.90;;;18.90;99.90;;;;;;5072082;28;20025;-80
2023/06/14 04:07:11;;;;;;;1999.90;999.90;;;18.90;99.90;;;;;;5054138;28;20101;-76
2023/06/14 04:09:37;;;;;;;1999.90;999.90;;;18.90;99.90;;;;;;5072148;28;20123;-80
2023/06/14 04:12:03;;;;;;;1999.90;999.90;;;19.00;99.90;;;;;;5054171;28;20017;-76
2023/06/14 04:14:30;;;;;;;1999.90;999.90;;;19.00;99.90;;;;;;5072207;28;20406;-80
2023/06/14 04:16:56;;;;;;;1999.90;999.90;;;19.00;99.90;;;;;;5071540;28;20021;-80
2023/06/14 04:19:22;;;;;;;1999.90;999.90;;;18.90;99.90;;;;;;5053640;28;20031;-80
2023/06/14 04:21:47;;;;;;;1999.90;999.90;;;19.00;99.90;;;;;;5055082;28;20042;-80
2023/06/14 04:24:13;;;;;;;1999.90;999.90;;;19.00;99.90;;;;;;5075800;28;20059;-76
2023/06/14 04:26:44;;;;;;;1999.90;999.90;;;19.00;99.90;;;;;;5076005;28;20028;-80
2023/06/14 04:29:19;;;;;;;1999.90;999.90;;;18.90;99.90;;;;;;5075610;28;20023;-80
2023/06/14 04:31:45;;;;;;;1999.90;999.90;;;19.00;99.90;;;;;;5057880;28;20135;-80
2023/06/14 04:34:16;;;;;;;1999.90;999.90;;;19.00;99.90;;;;;;5075467;28;20444;-80
2023/06/14 04:36:49;;;;;;;1999.90;999.90;;;19.10;99.90;;;;;;5075577;28;20100;-76
2023/06/14 04:39:23;;;;;;;;;;;19.10;99.90;;;;;;5076193;28;20070;-80
2023/06/14 04:41:52;;;;;;;1999.90;999.90;;;19.10;99.90;;;;;;5075759;28;19950;-80
2023/06/14 04:44:19;;;;;;;1999.90;999.90;;;19.10;99.90;;;;;;5095115;28;20032;-76
2023/06/14 04:46:48;;;;;;;1999.90;999.90;;;19.10;99.90;;;;;;5077371;28;20027;-80
2023/06/14 04:49:18;;;;;;;1999.90;999.90;;;19.10;99.90;;;;;;5095499;28;20028;-79
2023/06/14 04:51:44;;;;;;;1999.90;999.90;;;19.20;99.90;;;;;;5095635;28;20024;-76
2023/06/14 04:54:13;;;;;;;1999.90;999.90;;;19.20;99.90;;;;;;5081112;28;20044;-80
2023/06/14 04:56:39;;;;;;;1999.90;999.90;;;19.30;99.90;;;;;;5074181;28;20035;-81
2023/06/14 04:59:05;;;;;;;1999.90;999.90;;;19.40;99.90;;;;;;5075387;28;20028;-80
2023/06/14 05:01:34;;;;;;;1999.90;999.90;;;19.40;99.90;;;;;;5074895;28;20032;-77
2023/06/14 05:04:00;;;;;;;1999.90;999.90;;;19.50;99.90;;;;;;5094298;28;20535;-76
2023/06/14 05:06:27;;;;;;;1999.90;999.90;;;19.60;99.90;;;;;;5098150;28;20052;-83
2023/06/14 05:08:53;;;;;;;1999.90;999.90;;;19.70;99.90;;;;;;5094119;28;20029;-83
2023/06/14 05:11:19;;;;;;;1999.90;999.90;;;19.80;99.90;;;;;;5078390;28;20120;-80
2023/06/14 05:13:45;;;;;;;1999.90;999.90;;;19.80;99.90;;;;;;5075758;28;20423;-76
2023/06/14 05:16:15;;;;;;;1999.90;999.90;;;19.90;99.90;;;;;;5075188;28;20021;-80
2023/06/14 05:18:41;;;;;;;1999.90;999.90;;;19.90;99.90;;;;;;5073827;28;20024;-81
2023/06/14 05:21:06;;;;;;;1999.90;999.90;;;19.90;99.90;;;;;;5073511;28;20519;-80
2023/06/14 05:23:32;;;;;;;1999.90;999.90;;;20.00;99.90;;;;;;5072179;28;20028;-80
2023/06/14 05:25:58;;;;;;;1999.90;999.90;;;20.00;99.90;;;;;;5073345;28;20105;-81
2023/06/14 05:28:24;;;;;;;1999.90;999.90;;;20.10;99.90;;;;;;5073490;28;20037;-76
2023/06/14 05:30:51;;;;;;;1999.90;999.90;;;20.20;99.90;;;;;;5073369;28;20021;-76
2023/06/14 05:33:16;;;;;;;1999.90;999.90;;;20.20;99.90;;;;;;5073644;28;20128;-83
2023/06/14 05:35:42;;;;;;;1999.90;999.90;;;20.20;99.90;;;;;;5073639;28;20100;-81
2023/06/14 05:38:08;;;;;;;1999.90;999.90;;;20.30;99.90;;;;;;5055323;28;20044;-81
2023/06/14 05:40:33;;;;;;;1999.90;999.90;;;20.40;99.90;;;;;;5073377;28;20130;-77
2023/06/14 05:42:59;;;;;;;1999.90;999.90;;;20.40;99.90;;;;;;5072807;28;20089;-77
2023/06/14 05:45:25;;;;;;;1999.90;999.90;;;20.40;99.90;;;;;;5066852;28;20546;-77
2023/06/14 05:47:51;;;;;;;1999.90;999.90;;;20.40;99.90;;;;;;5061905;28;20091;-81
2023/06/14 05:50:16;;;;;;;1999.90;999.90;;;20.30;99.90;;;;;;5061779;28;20020;-81
2023/06/14 05:52:42;;;;;;;1999.90;999.90;;;20.40;99.90;;;;;;5073018;28;20111;-81
2023/06/14 05:55:08;;;;;;;1999.90;999.90;;;20.30;99.90;;;;;;5071589;28;20433;-76
2023/06/14 05:57:35;;;;;;;1999.90;999.90;;;20.30;99.90;;;;;;5072096;28;20028;-81
2023/06/14 06:00:00;;;;;;;1999.90;999.90;;;20.30;99.90;;;;;;5071285;28;20024;-81
2023/06/14 06:02:26;;;;;;;1999.90;999.90;;;20.30;99.90;;;;;;5072405;28;20032;-81
2023/06/14 06:04:52;;;;;;;1999.90;999.90;;;20.30;99.90;;;;;;5072937;28;20518;-81
2023/06/14 06:07:17;;;;;;;1999.90;999.90;;;20.40;99.90;;;;;;5072258;28;20060;-77
2023/06/14 06:09:43;;;;;;;1999.90;999.90;;;20.40;99.90;;;;;;5062547;28;20107;-81
2023/06/14 06:12:09;;;;;;;1999.90;999.90;;;20.40;99.90;;;;;;5050577;28;20052;-81
2023/06/14 06:14:34;;;;;;;1999.90;999.90;;;20.50;99.90;;;;;;5079682;28;20059;-80
2023/06/14 06:17:00;;;;;;;1999.90;999.90;;;20.50;99.90;;;;;;5070922;28;20033;-81
2023/06/14 06:19:25;;;;;;;1999.90;999.90;;;20.60;99.90;;;;;;5066133;28;20024;-77
2023/06/14 06:21:51;;;;;;;1999.90;999.90;;;20.70;99.90;;;;;;5069033;28;20039;-77
2023/06/14 06:24:17;;;;;;;1999.90;999.90;;;20.60;99.90;;;;;;5072794;28;20037;-81
2023/06/14 06:26:42;;;;;;;1999.90;999.90;;;20.80;99.90;;;;;;5056197;28;20041;-77
2023/06/14 06:29:08;;;;;;;1999.90;999.90;;;20.90;99.90;;;;;;5066609;28;20032;-81
2023/06/14 06:31:33;;;;;;;1999.90;999.90;;;20.90;99.90;;;;;;5075064;28;20036;-81
2023/06/14 06:33:59;;;;;;;1999.90;999.90;;;21.00;99.90;;;;;;5070048;28;20491;-77
2023/06/14 06:36:24;;;;;;;1999.90;999.90;;;21.00;99.90;;;;;;5080038;28;20024;-77
2023/06/14 06:38:50;;;;;;;1999.90;999.90;;;21.10;99.90;;;;;;5071628;28;20042;-81
2023/06/14 06:41:16;;;;;;;1999.90;999.90;;;21.20;99.90;;;;;;5083250;28;20028;-81
2023/06/14 06:43:42;;;;;;;1999.90;999.90;;;21.20;99.90;;;;;;5074797;28;20400;-77
2023/06/14 06:46:07;;;;;;;1999.90;999.90;;;21.30;99.90;;;;;;5066878;28;20406;-77
2023/06/14 06:48:33;;;;;;;1999.90;999.90;;;21.40;99.90;;;;;;5075277;28;20024;-77
2023/06/14 06:50:59;;;;;;;1999.90;999.90;;;21.50;99.90;;;;;;5072265;28;20024;-80
2023/06/14 06:53:25;;;;;;;1999.90;999.90;;;21.50;99.90;;;;;;5062392;28;20538;-81
2023/06/14 06:55:50;;;;;;;1999.90;999.90;;;21.60;99.90;;;;;;5068419;28;20108;-79
2023/06/14 06:58:16;;;;;;;1999.90;999.90;;;21.70;99.90;;;;;;5069783;28;20436;-77
2023/06/14 07:00:41;;;;;;;1999.90;999.90;;;21.90;99.90;;;;;;5049900;28;20037;-77
2023/06/14 07:03:07;;;;;;;1999.90;999.90;;;22.00;99.90;;;;;;5067239;28;20031;-77
2023/06/14 07:05:33;;;;;;;1999.90;999.90;;;22.10;99.90;;;;;;5067875;28;20098;-80
2023/06/14 07:07:59;;;;;;;1999.90;999.90;;;22.20;99.90;;;;;;5068989;28;20507;-77
2023/06/14 07:10:24;;;;;;;1999.90;999.90;;;22.20;99.90;;;;;;5068465;28;20103;-81
2023/06/14 07:12:51;;;;;;;1999.90;999.90;;;22.40;99.90;;;;;;5052292;28;20038;-77
2023/06/14 07:15:16;;;;;;;1999.90;999.90;;;22.60;99.90;;;;;;5081659;28;20035;-77
2023/06/14 07:17:42;;;;;;;1999.90;999.90;;;22.70;99.90;;;;;;5070450;28;20028;-80
2023/06/14 07:20:11;;;;;;;1999.90;999.90;;;22.90;99.90;;;;;;5067185;28;20036;-77
2023/06/14 07:22:43;;;;;;;1999.90;999.90;;;23.10;99.90;;;;;;5067648;28;20021;-83
2023/06/14 07:25:13;;;;;;;1999.90;999.90;;;23.20;99.90;;;;;;5087914;28;20052;-76
2023/06/14 07:27:40;;;;;;;1999.90;999.90;;;23.30;99.90;;;;;;5070112;28;20024;-77
2023/06/14 07:30:07;;;;;;;1999.90;999.90;;;23.60;99.90;;;;;;5085171;28;20499;-84
2023/06/14 07:32:32;;;;;;;1999.90;999.90;;;24.70;99.90;;;;;;5082692;28;20096;-77
2023/06/14 07:34:58;;;;;;;1999.90;999.90;;;27.10;99.90;;;;;;5054527;28;20070;-83
2023/06/14 07:37:23;;;;;;;1999.90;999.90;;;28.30;99.90;;;;;;5068024;28;20035;-77
2023/06/14 07:39:49;;;;;;;1999.90;999.90;;;29.30;99.90;;;;;;5069128;28;20028;-84
2023/06/14 07:42:14;;;;;;;1999.90;999.90;;;30.10;99.90;;;;;;5068986;28;20067;-84
2023/06/14 07:44:40;;;;;;;1999.90;999.90;;;30.20;99.90;;;;;;5069155;28;20394;-85
2023/06/14 07:47:06;;;;;;;1999.90;999.90;;;30.80;99.90;;;;;;5067537;28;20040;-84
2023/06/14 07:49:31;;;;;;;1999.90;999.90;;;31.80;99.90;;;;;;5068929;28;20085;-84
2023/06/14 07:51:58;;;;;;;1999.90;999.90;;;32.30;99.90;;;;;;5069090;28;20064;-78
2023/06/14 07:54:26;;;;;;;1999.90;999.90;;;32.30;99.90;;;;;;5068176;28;20024;-84
2023/06/14 07:56:52;;;;;;;1999.90;999.90;;;32.10;99.90;;;;;;5068715;28;20028;-83
2023/06/14 07:59:17;;;;;;;1999.90;999.90;;;32.50;99.90;;;;;;5053907;28;20029;-82
2023/06/14 08:01:46;;;;;;;1999.90;999.90;;;32.60;99.90;;;;;;5076362;28;20078;-84
2023/06/14 08:04:13;;;;;;;1999.90;999.90;;;32.50;99.90;;;;;;5076176;28;20035;-77
2023/06/14 08:06:39;;;;;;;1999.90;999.90;;;32.80;99.90;;;;;;5085413;28;20053;-82
2023/06/14 08:09:05;;;;;;;1999.90;999.90;;;33.20;99.90;;;;;;5081508;28;20035;-82
2023/06/14 08:11:31;;;;;;;1999.90;999.90;;;34.10;99.90;;;;;;5064735;28;20020;-83
2023/06/14 08:13:56;;;;;;;1999.90;999.90;;;34.10;99.90;;;;;;5087465;28;20101;-83
2023/06/14 08:16:22;;;;;;;1999.90;999.90;;;34.50;99.90;;;;;;5084889;28;20032;-76
2023/06/14 08:18:50;;;;;;;1999.90;999.90;;;34.90;98.60;;;;;;5070624;28;20040;-76
2023/06/14 08:21:15;;;;;;;1999.90;999.90;;;35.10;97.10;;;;;;5066807;28;20084;-83
2023/06/14 08:23:42;;;;;;;1999.90;999.90;;;35.30;96.90;;;;;;5073755;28;20456;-84
2023/06/14 08:26:09;;;;;;;1999.90;999.90;;;35.50;97.10;;;;;;5067239;28;20699;-85
2023/06/14 08:28:34;;;;;;;1999.90;999.90;;;36.20;93.80;;;;;;5070033;28;20032;-84
2023/06/14 08:31:00;;;;;;;1999.90;999.90;;;36.50;93.60;;;;;;5091448;28;20054;-82
2023/06/14 08:33:25;;;;;;;1999.90;999.90;;;36.30;92.30;;;;;;5054703;28;20051;-82
2023/06/14 08:35:51;;;;;;;1999.90;999.90;;;36.20;91.90;;;;;;5081864;28;20848;-83
2023/06/14 08:38:17;;;;;;;1999.90;999.90;;;36.40;92.10;;;;;;5076234;28;20036;-83
2023/06/14 08:40:43;;;;;;;1999.90;999.90;;;36.90;91.60;;;;;;5070733;28;20209;-83
2023/06/14 08:43:08;;;;;;;1999.90;999.90;;;37.50;91.40;;;;;;5062777;28;20033;-75
2023/06/14 08:45:34;;;;;;;1999.90;999.90;;;37.30;90.50;;;;;;5064671;28;20514;-75
2023/06/14 08:48:01;;;;;;;1999.90;999.90;;;37.20;90.50;;;;;;5070836;28;20492;-81
2023/06/14 08:50:29;;;;;;;1999.90;999.90;;;36.80;90.50;;;;;;5071982;28;20027;-82
2023/06/14 08:53:00;;;;;;;1999.90;999.90;;;37.20;91.60;;;;;;5072146;28;20035;-80
2023/06/14 08:55:27;;;;;;;1999.90;999.90;;;37.50;91.50;;;;;;5070504;28;20021;-75
2023/06/14 08:57:57;;;;;;;1999.90;999.90;;;38.20;91.80;;;;;;5072217;28;20032;-75
2023/06/14 09:00:24;;;;;;;1999.90;999.90;;;37.50;90.40;;;;;;5071579;28;20032;-82
2023/06/14 09:02:55;;;;;;;1999.90;999.90;;;38.00;91.00;;;;;;5071320;28;20410;-79
2023/06/14 09:05:23;;;;;;;1999.90;999.90;;;37.70;90.70;;;;;;5069504;28;20056;-82
2023/06/14 09:07:50;;;;;;;1999.90;999.90;;;37.50;87.70;;;;;;5070711;28;20066;-81
2023/06/14 09:10:16;;;;;;;1999.90;999.90;;;37.40;90.10;;;;;;5070628;28;20025;-75
2023/06/14 09:12:43;;;;;;;1999.90;999.90;;;37.40;90.00;;;;;;5077489;28;20483;-83
2023/06/14 09:15:10;;;;;;;1999.90;999.90;;;38.00;91.40;;;;;;5091012;28;20031;-83
2023/06/14 09:17:36;;;;;;;1999.90;999.90;;;38.20;91.20;;;;;;5070216;28;20121;-77
2023/06/14 09:20:06;;;;;;;1999.90;999.90;;;38.20;87.90;;;;;;5070401;28;20056;-82
2023/06/14 09:22:33;;;;;;;;;;;37.90;87.20;;;;;;5049495;28;20137;-77
2023/06/14 09:24:59;;;;;;;1999.90;999.90;;;37.80;89.60;;;;;;5088763;28;20389;-77
2023/06/14 09:27:35;;;;;;;1999.90;999.90;;;38.00;88.90;;;;;;5090031;28;20032;-84
2023/06/14 09:30:05;;;;;;;1999.90;999.90;;;38.10;87.70;;;;;;5088609;28;20031;-77
2023/06/14 09:32:30;;;;;;;1999.90;999.90;;;38.30;82.90;;;;;;5091176;28;20024;-83
2023/06/14 09:34:56;;;;;;;1999.90;999.90;;;38.30;86.90;;;;;;5077709;28;20373;-77
2023/06/14 09:37:32;;;;;;;1999.90;999.90;;;38.90;83.70;;;;;;5074838;28;20037;-77
2023/06/14 09:39:58;;;;;;;1999.90;999.90;;;38.80;86.00;;;;;;5081779;28;20111;-84
2023/06/14 09:42:28;;;;;;;1999.90;999.90;;;39.00;87.30;;;;;;5074224;28;20566;-84
2023/06/14 09:44:55;;;;;;;1999.90;999.90;;;38.90;84.50;;;;;;5059255;28;20551;-84
2023/06/14 09:47:22;;;;;;;1999.90;999.90;;;38.60;78.90;;;;;;5072372;28;20021;-78
2023/06/14 09:49:49;;;;;;;1999.90;999.90;;;38.40;78.80;;;;;;5084189;28;20039;-78
2023/06/14 09:52:19;;;;;;;1999.90;999.90;;;38.80;75.30;;;;;;5090416;28;20082;-84
2023/06/14 09:54:47;;;;;;;1999.90;999.90;;;38.80;72.10;;;;;;5082440;28;20024;-81
2023/06/14 09:57:23;;;;;;;1999.90;999.90;;;38.90;71.00;;;;;;5071444;28;20020;-83
2023/06/14 09:59:53;;;;;;;1999.90;999.90;;;38.90;70.30;;;;;;5083242;28;20525;-82
2023/06/14 10:02:25;;;;;;;1999.90;999.90;;;39.00;73.10;;;;;;5070308;28;20017;-77
2023/06/14 10:05:00;;;;;;;1999.90;999.90;;;39.40;71.50;;;;;;5079167;28;20791;-77
2023/06/14 10:07:30;;;;;;;1999.90;999.90;;;39.70;69.00;;;;;;5073746;28;20047;-81
2023/06/14 10:09:56;;;;;;;1999.90;999.90;;;39.00;66.10;;;;;;5074117;28;20094;-83
2023/06/14 10:12:22;;;;;;;1999.90;999.90;;;39.40;66.80;;;;;;5072897;28;20447;-83
2023/06/14 10:14:55;;;;;;;1999.90;999.90;;;39.10;70.90;;;;;;5071070;28;20036;-77
2023/06/14 10:17:32;;;;;;;1999.90;999.90;;;38.90;64.80;;;;;;5082848;28;20051;-82
2023/06/14 10:20:21;;;;;;;1999.90;999.90;;;38.90;65.90;;;;;;5067013;28;20041;-82
2023/06/14 10:23:18;;;;;;;1999.90;999.90;;;39.10;64.90;;;;;;5061773;28;20056;-83
2023/06/14 10:25:44;;;;;;;1999.90;999.90;;;39.20;64.20;;;;;;5047114;28;20040;-84
2023/06/14 10:28:17;;;;;;;1999.90;999.90;;;38.10;75.30;;;;;;5077094;28;20129;-77
2023/06/14 10:31:03;;;;;;;1999.90;999.90;;;36.20;82.80;;;;;;5074857;28;20034;-82
2023/06/14 10:33:30;;;;;;;1999.90;999.90;;;36.60;83.50;;;;;;5068722;28;20016;-83
2023/06/14 10:36:34;;;;;;;1999.90;999.90;;;35.50;91.20;;;;;;5075728;28;20426;-83
2023/06/14 10:39:01;;;;;;;1999.90;999.90;;;35.70;92.30;;;;;;5074800;28;20085;-84
2023/06/14 10:41:28;;;;;;;1999.90;999.90;;;34.50;91.10;;;;;;5083680;28;20117;-78
2023/06/14 10:44:12;;;;;;;1999.90;999.90;;;33.90;92.00;;;;;;5074817;28;20031;-84
2023/06/14 10:46:40;;;;;;;1999.90;999.90;;;34.30;92.30;;;;;;5060244;28;20044;-85
2023/06/14 10:49:06;;;;;;;1999.90;999.90;;;34.40;91.90;;;;;;5067225;28;20572;-84
2023/06/14 10:51:45;;;;;;;1999.90;999.90;;;34.10;92.80;;;;;;5069231;28;20055;-84
2023/06/14 10:54:13;;;;;;;1999.90;999.90;;;33.60;93.70;;;;;;5070013;28;20024;-78
2023/06/14 10:56:50;;;;;;;1999.90;999.90;;;33.60;92.80;;;;;;5069801;28;20063;-84
2023/06/14 10:59:16;;;;;;;1999.90;999.90;;;33.50;90.70;;;;;;5084143;28;20024;-84
2023/06/14 11:01:58;;;;;;;1999.90;999.90;;;33.40;91.10;;;;;;5083657;28;20487;-79
2023/06/14 11:04:34;;;;;;;1999.90;999.90;;;33.80;91.10;;;;;;5077966;28;20035;-84
2023/06/14 11:07:39;;;;;;;1999.90;999.90;;;33.60;92.10;;;;;;5052026;28;20044;-78
2023/06/14 11:10:23;;;;;;;1999.90;999.90;;;33.70;92.20;;;;;;5032770;28;20535;-83
2023/06/14 11:12:52;;;;;;;1999.90;999.90;;;33.30;93.60;;;;;;5084774;28;20040;-84
2023/06/14 11:15:17;;;;;;;1999.90;999.90;;;33.60;92.00;;;;;;5076547;28;20058;-84
2023/06/14 11:17:53;;;;;;;1999.90;999.90;;;33.60;91.40;;;;;;5070014;28;20764;-84
2023/06/14 11:20:19;;;;;;;1999.90;999.90;;;33.50;91.80;;;;;;5068589;28;20031;-78
2023/06/14 11:22:45;;;;;;;1999.90;999.90;;;33.40;87.00;;;;;;5068554;28;20032;-83
2023/06/14 11:25:14;;;;;;;1999.90;999.90;;;33.30;89.20;;;;;;5078748;28;20021;-84
2023/06/14 11:27:43;;;;;;;1999.90;999.90;;;33.70;91.20;;;;;;5069931;28;20032;-84
2023/06/14 11:30:10;;;;;;;1999.90;999.90;;;33.30;92.20;;;;;;5072693;28;20017;-83
2023/06/14 11:32:37;;;;;;;1999.90;999.90;;;33.10;92.40;;;;;;5089836;28;20032;-78
2023/06/14 11:35:04;;;;;;;1999.90;999.90;;;32.80;92.20;;;;;;5072047;28;20048;-79
2023/06/14 11:37:32;;;;;;;1999.90;999.90;;;33.10;91.90;;;;;;5069465;28;20033;-82
2023/06/14 11:39:59;;;;;;;1999.90;999.90;;;33.10;90.90;;;;;;5073421;28;20039;-85
2023/06/14 11:42:28;;;;;;;1999.90;999.90;;;33.40;91.80;;;;;;5090313;28;20109;-79
2023/06/14 11:44:54;;;;;;;1999.90;999.90;;;33.50;91.50;;;;;;5072780;28;20364;-80
2023/06/14 11:47:20;;;;;;;1999.90;999.90;;;33.10;88.20;;;;;;5074378;28;20028;-80
2023/06/14 11:49:47;;;;;;;1999.90;999.90;;;33.20;89.90;;;;;;5084433;28;20029;-86
2023/06/14 11:52:13;;;;;;;1999.90;999.90;;;32.80;91.10;;;;;;5083007;28;20024;-86
2023/06/14 11:54:42;;;;;;;1999.90;999.90;;;33.00;91.30;;;;;;5064924;28;20507;-85
2023/06/14 11:57:08;;;;;;;1999.90;999.90;;;32.70;91.80;;;;;;5080743;28;20522;-84
2023/06/14 11:59:45;;;;;;;1999.90;999.90;;;32.10;92.00;;;;;;5077949;28;20175;-78
2023/06/14 12:02:14;;;;;;;1999.90;999.90;;;31.90;93.30;;;;;;5068550;28;20035;-85
2023/06/14 12:04:50;;;;;;;1999.90;999.90;;;32.10;93.10;;;;;;5074836;28;20027;-85